createdAt,value
2022-09-07T00:01:07.357Z,54.32
2022-09-07T00:03:36.361Z,54.17
2022-09-07T00:06:07.919Z,53.60
2022-09-07T00:08:36.435Z,55.76
2022-09-07T00:11:08.264Z,55.33
2022-09-07T00:13:38.938Z,56.63
2022-09-07T00:16:08.503Z,56.91
2022-09-07T00:18:36.794Z,56.66
2022-09-07T00:21:07.711Z,56.39
2022-09-07T00:23:37.696Z,57.52
2022-09-07T00:26:09.851Z,57.24
2022-09-07T00:28:38.453Z,57.60
2022-09-07T00:31:11.347Z,57.42
2022-09-07T00:33:39.582Z,57.69
2022-09-07T00:36:07.991Z,56.40
2022-09-07T00:38:36.192Z,56.73
2022-09-07T00:41:04.626Z,56.77
2022-09-07T00:43:38.025Z,56.56
2022-09-07T00:46:08.084Z,56.71
2022-09-07T00:48:43.428Z,56.54
2022-09-07T00:51:15.967Z,56.67
2022-09-07T00:53:46.139Z,56.20
2022-09-07T00:56:14.807Z,56.36
2022-09-07T00:58:45.139Z,56.44
2022-09-07T01:01:13.985Z,56.65
2022-09-07T01:03:44.992Z,56.40
2022-09-07T01:06:17.059Z,56.87
2022-09-07T01:08:47.290Z,57.26
2022-09-07T01:11:15.537Z,57.58
2022-09-07T01:13:46.794Z,57.59
2022-09-07T01:16:24.849Z,57.47
2022-09-07T01:19:02.519Z,58.69
2022-09-07T01:21:45.293Z,58.36
2022-09-07T01:24:36.407Z,57.96
2022-09-07T01:27:42.068Z,59.56
2022-09-07T01:30:12.597Z,60.27
2022-09-07T01:33:06.146Z,57.47
2022-09-07T01:35:43.235Z,60.94
2022-09-07T01:38:21.510Z,59.82
2022-09-07T01:40:58.415Z,59.40
2022-09-07T01:43:36.497Z,59.38
2022-09-07T01:46:12.053Z,61.20
2022-09-07T01:48:41.671Z,59.29
2022-09-07T01:51:12.574Z,59.08
2022-09-07T01:53:44.577Z,58.98
2022-09-07T01:56:15.785Z,58.93
2022-09-07T01:58:49.050Z,58.32
2022-09-07T02:01:24.704Z,59.33
2022-09-07T02:03:58.065Z,58.67
2022-09-07T02:06:35.759Z,58.23
2022-09-07T02:09:08.396Z,59.22
2022-09-07T02:11:39.387Z,58.92
2022-09-07T02:14:12.560Z,58.49
2022-09-07T02:16:48.547Z,58.48
2022-09-07T02:19:20.902Z,58.30
2022-09-07T02:21:55.013Z,57.88
2022-09-07T02:24:27.669Z,57.99
2022-09-07T02:26:57.652Z,58.20
2022-09-07T02:29:30.890Z,58.21
2022-09-07T02:31:59.221Z,58.83
2022-09-07T02:34:27.744Z,59.13
2022-09-07T02:36:58.083Z,58.78
2022-09-07T02:39:26.109Z,58.51
2022-09-07T02:41:54.400Z,57.99
2022-09-07T02:44:25.922Z,57.51
2022-09-07T02:47:05.972Z,57.75
2022-09-07T02:49:47.146Z,58.52
2022-09-07T02:52:23.174Z,60.01
2022-09-07T02:55:03.086Z,59.88
2022-09-07T02:57:47.333Z,60.16
2022-09-07T03:00:19.200Z,60.00
2022-09-07T03:02:56.844Z,59.00
2022-09-07T03:05:30.090Z,59.84
2022-09-07T03:08:04.283Z,59.15
2022-09-07T03:10:33.367Z,59.91
2022-09-07T03:13:01.317Z,58.71
2022-09-07T03:15:29.594Z,58.11
2022-09-07T03:17:59.148Z,58.13
2022-09-07T03:20:27.228Z,58.01
2022-09-07T03:22:55.131Z,57.77
2022-09-07T03:25:23.686Z,57.46
2022-09-07T03:27:51.679Z,57.90
2022-09-07T03:30:19.931Z,58.25
2022-09-07T03:32:48.343Z,58.22
2022-09-07T03:35:18.128Z,58.19
2022-09-07T03:37:46.167Z,58.21
2022-09-07T03:40:16.255Z,59.10
2022-09-07T03:42:44.515Z,58.28
2022-09-07T03:45:12.694Z,58.29
2022-09-07T03:47:41.303Z,58.69
2022-09-07T03:50:10.617Z,57.65
2022-09-07T03:52:40.182Z,57.67
2022-09-07T03:55:09.188Z,57.85
2022-09-07T03:57:37.266Z,58.06
2022-09-07T04:00:06.383Z,58.87
2022-09-07T04:02:40.559Z,58.95
2022-09-07T04:05:09.604Z,58.58
2022-09-07T04:07:37.778Z,59.32
2022-09-07T04:10:07.894Z,59.07
2022-09-07T04:12:36.098Z,58.10
2022-09-07T04:15:04.138Z,58.33
2022-09-07T04:17:32.028Z,58.77
2022-09-07T04:20:00.240Z,58.80
2022-09-07T04:22:28.181Z,58.65
2022-09-07T04:24:56.097Z,59.33
2022-09-07T04:27:25.551Z,58.86
2022-09-07T04:29:53.496Z,59.59
2022-09-07T04:32:21.546Z,59.27
2022-09-07T04:34:51.872Z,58.96
2022-09-07T04:37:19.806Z,59.05
2022-09-07T04:39:47.705Z,58.77
2022-09-07T04:42:15.945Z,59.30
2022-09-07T04:44:45.205Z,59.13
2022-09-07T04:47:13.145Z,58.78
2022-09-07T04:49:41.533Z,58.70
2022-09-07T04:52:09.599Z,58.71
2022-09-07T04:54:37.479Z,58.65
2022-09-07T04:57:06.082Z,58.65
2022-09-07T04:59:33.961Z,58.85
2022-09-07T05:02:03.192Z,59.23
2022-09-07T05:04:31.639Z,58.96
2022-09-07T05:06:59.590Z,59.41
2022-09-07T05:09:27.477Z,59.24
2022-09-07T05:11:55.762Z,58.81
2022-09-07T05:14:23.714Z,58.70
2022-09-07T05:16:51.802Z,59.03
2022-09-07T05:19:21.433Z,58.34
2022-09-07T05:21:49.418Z,59.00
2022-09-07T05:24:17.296Z,58.96
2022-09-07T05:26:45.468Z,58.93
2022-09-07T05:32:01.655Z,59.41
2022-09-07T05:34:31.318Z,58.78
2022-09-07T05:37:00.010Z,58.21
2022-09-07T05:39:28.551Z,58.83
2022-09-07T05:41:57.198Z,59.25
2022-09-07T05:47:13.654Z,58.53
2022-09-07T05:49:42.983Z,58.78
2022-09-07T05:52:10.856Z,58.76
2022-09-07T05:54:38.994Z,57.96
2022-09-07T05:57:07.242Z,58.13
2022-09-07T05:59:35.399Z,57.81
2022-09-07T06:02:03.775Z,57.73
2022-09-07T06:04:32.472Z,57.57
2022-09-07T06:12:37.899Z,57.38
2022-09-07T06:15:06.849Z,57.55
2022-09-07T06:17:34.813Z,57.53
2022-09-07T06:20:03.583Z,57.82
2022-09-07T06:22:33.083Z,58.21
2022-09-07T06:25:01.060Z,57.99
2022-09-07T06:27:29.424Z,57.70
2022-09-07T06:29:57.935Z,57.13
2022-09-07T06:35:15.491Z,57.24
2022-09-07T06:37:45.148Z,57.06
2022-09-07T06:40:13.391Z,57.06
2022-09-07T06:42:41.737Z,56.95
2022-09-07T06:45:11.603Z,56.86
2022-09-07T06:47:40.552Z,56.70
2022-09-07T06:50:10.106Z,56.60
2022-09-07T06:55:28.684Z,56.35
2022-09-07T06:57:56.583Z,56.36
2022-09-07T07:00:24.573Z,56.25
2022-09-07T07:02:52.798Z,56.03
2022-09-07T07:05:20.849Z,56.14
2022-09-07T07:07:48.721Z,55.92
2022-09-07T07:10:19.755Z,55.59
2022-09-07T07:12:52.999Z,55.48
2022-09-07T07:15:21.350Z,55.24
2022-09-07T07:17:56.079Z,55.12
2022-09-07T07:20:27.179Z,55.20
2022-09-07T07:22:58.156Z,54.97
2022-09-07T07:25:26.022Z,54.87
2022-09-07T07:27:55.558Z,54.48
2022-09-07T07:30:23.551Z,54.14
2022-09-07T07:32:51.655Z,54.32
2022-09-07T07:35:20.161Z,53.79
2022-09-07T07:37:48.103Z,54.09
2022-09-07T07:40:17.773Z,54.23
2022-09-07T07:42:48.771Z,54.10
2022-09-07T07:48:06.586Z,53.80
2022-09-07T07:50:34.769Z,54.13
2022-09-07T07:55:52.026Z,53.84
2022-09-07T07:58:20.181Z,53.82
2022-09-07T08:00:57.084Z,53.69
2022-09-07T08:03:26.427Z,53.48
2022-09-07T08:05:55.041Z,53.21
2022-09-07T08:08:24.430Z,53.13
2022-09-07T08:10:53.306Z,53.04
2022-09-07T08:13:21.742Z,52.88
2022-09-07T08:15:51.012Z,52.78
2022-09-07T08:18:21.574Z,52.76
2022-09-07T08:20:49.447Z,52.49
2022-09-07T08:23:17.811Z,52.39
2022-09-07T08:25:54.747Z,52.31
2022-09-07T08:28:23.774Z,51.89
2022-09-07T08:30:55.118Z,52.14
2022-09-07T08:33:23.045Z,52.01
2022-09-07T08:35:59.262Z,52.02
2022-09-07T08:38:27.776Z,51.67
2022-09-07T08:40:55.897Z,51.98
2022-09-07T08:43:47.110Z,51.78
2022-09-07T08:46:29.226Z,51.58
2022-09-07T08:49:00.825Z,51.39
2022-09-07T08:51:38.312Z,51.73
2022-09-07T08:54:07.135Z,50.91
2022-09-07T08:57:20.500Z,51.52
2022-09-07T08:59:39.000Z,50.89
2022-09-07T09:02:34.005Z,50.89
2022-09-07T09:05:18.498Z,50.93
2022-09-07T09:07:58.331Z,51.25
2022-09-07T09:10:35.660Z,50.80
2022-09-07T09:13:10.848Z,50.32
2022-09-07T09:15:52.165Z,50.51
2022-09-07T09:18:35.143Z,49.16
2022-09-07T09:21:03.526Z,49.58
2022-09-07T09:23:35.495Z,50.11
2022-09-07T09:26:08.585Z,50.04
2022-09-07T09:28:37.248Z,49.89
2022-09-07T09:31:05.877Z,49.90
2022-09-07T09:33:35.215Z,49.64
2022-09-07T09:36:03.696Z,49.54
2022-09-07T09:38:35.316Z,49.62
2022-09-07T09:41:08.327Z,49.06
2022-09-07T09:43:44.503Z,48.53
2022-09-07T09:46:20.397Z,48.38
2022-09-07T09:48:56.892Z,48.02
2022-09-07T09:54:25.795Z,48.54
2022-09-07T09:56:54.147Z,47.79
2022-09-07T10:05:28.231Z,46.38
2022-09-07T10:07:59.424Z,46.86
2022-09-07T10:10:29.474Z,48.01
2022-09-07T10:12:57.549Z,47.78
2022-09-07T10:15:40.206Z,47.15
2022-09-07T10:18:23.302Z,45.58
2022-09-07T10:20:52.461Z,45.47
2022-09-07T10:23:23.588Z,45.98
2022-09-07T10:25:51.928Z,46.10
2022-09-07T10:28:22.555Z,46.33
2022-09-07T10:31:10.014Z,45.94
2022-09-07T10:36:46.019Z,43.32
2022-09-07T10:39:18.194Z,42.85
2022-09-07T10:41:55.855Z,44.26
2022-09-07T10:44:36.278Z,43.30
2022-09-07T10:47:25.686Z,42.61
2022-09-07T10:52:55.524Z,42.22
2022-09-07T10:55:29.851Z,42.18
2022-09-07T10:58:08.912Z,43.54
2022-09-07T11:00:44.543Z,40.80
2022-09-07T11:03:35.406Z,41.08
2022-09-07T11:06:15.157Z,41.56
2022-09-07T11:09:17.807Z,39.83
2022-09-07T11:12:03.062Z,37.92
2022-09-07T11:14:37.716Z,42.68
2022-09-07T11:17:14.088Z,42.18
2022-09-07T11:19:49.482Z,41.03
2022-09-07T11:22:28.864Z,41.04
2022-09-07T11:27:57.872Z,40.70
2022-09-07T11:30:31.200Z,41.04
2022-09-07T11:33:04.463Z,39.57
2022-09-07T11:35:37.753Z,40.51
2022-09-07T11:38:15.202Z,40.53
2022-09-07T11:40:56.697Z,38.05
2022-09-07T11:43:30.806Z,38.45
2022-09-07T11:46:07.396Z,39.75
2022-09-07T11:48:42.700Z,38.76
2022-09-07T11:51:16.634Z,38.56
2022-09-07T11:53:51.038Z,38.61
2022-09-07T11:56:26.947Z,39.48
2022-09-07T11:59:06.198Z,37.66
2022-09-07T12:01:46.429Z,36.00
2022-09-07T12:04:31.399Z,37.11
2022-09-07T12:07:19.880Z,35.46
2022-09-07T12:10:07.945Z,35.10
2022-09-07T12:12:57.579Z,37.46
2022-09-07T12:15:37.338Z,36.35
2022-09-07T12:18:23.056Z,37.11
2022-09-07T12:20:51.476Z,35.43
2022-09-07T12:23:25.582Z,39.02
2022-09-07T12:25:54.971Z,38.22
2022-09-07T12:28:56.040Z,39.05
2022-09-07T12:31:57.206Z,37.02
2022-09-07T12:34:53.618Z,36.42
2022-09-07T12:37:39.742Z,34.98
2022-09-07T12:40:47.209Z,36.23
2022-09-07T12:44:17.813Z,36.46
2022-09-07T12:46:56.937Z,35.96
2022-09-07T12:49:58.891Z,37.40
2022-09-07T12:52:46.207Z,34.70
2022-09-07T12:55:28.950Z,35.79
2022-09-07T12:58:11.060Z,36.60
2022-09-07T13:00:57.733Z,35.92
2022-09-07T13:03:51.728Z,35.58
2022-09-07T13:09:31.926Z,36.55
2022-09-07T13:12:01.184Z,35.42
2022-09-07T13:14:30.245Z,37.23
2022-09-07T13:17:42.670Z,37.46
2022-09-07T13:20:30.255Z,34.04
2022-09-07T13:23:21.737Z,35.02
2022-09-07T13:25:55.902Z,33.94
2022-09-07T13:28:51.890Z,36.61
2022-09-07T13:31:49.445Z,32.78
2022-09-07T13:34:53.960Z,34.04
2022-09-07T13:37:25.346Z,34.24
2022-09-07T13:39:57.185Z,35.64
2022-09-07T13:42:28.904Z,34.92
2022-09-07T13:44:58.516Z,35.78
2022-09-07T13:47:42.832Z,35.48
2022-09-07T13:50:23.962Z,33.50
2022-09-07T13:53:16.170Z,32.87
2022-09-07T13:55:52.805Z,32.17
2022-09-07T13:58:30.329Z,35.27
2022-09-07T14:01:02.311Z,35.87
2022-09-07T14:03:37.764Z,35.59
2022-09-07T14:06:33.175Z,35.05
2022-09-07T14:09:07.039Z,33.37
2022-09-07T14:11:42.559Z,34.34
2022-09-07T14:14:14.181Z,33.64
2022-09-07T14:16:44.829Z,35.05
2022-09-07T14:19:18.078Z,34.43
2022-09-07T14:21:54.931Z,34.53
2022-09-07T14:24:32.068Z,31.25
2022-09-07T14:27:00.686Z,31.89
2022-09-07T14:29:31.497Z,34.57
2022-09-07T14:32:01.563Z,33.96
2022-09-07T14:34:33.790Z,34.54
2022-09-07T14:37:05.928Z,33.86
2022-09-07T14:39:40.101Z,34.06
2022-09-07T14:42:11.495Z,32.70
2022-09-07T14:44:43.184Z,34.37
2022-09-07T14:47:29.115Z,34.56
2022-09-07T14:50:05.991Z,32.30
2022-09-07T14:52:43.387Z,34.37
2022-09-07T14:55:33.412Z,33.55
2022-09-07T14:58:21.042Z,32.86
2022-09-07T15:04:02.452Z,34.24
2022-09-07T15:09:30.718Z,32.49
2022-09-07T15:12:18.273Z,34.32
2022-09-07T15:14:47.551Z,32.35
2022-09-07T15:20:32.613Z,32.45
2022-09-07T15:23:01.235Z,31.52
2022-09-07T15:25:30.481Z,34.06
2022-09-07T15:27:59.865Z,34.03
2022-09-07T15:30:28.162Z,33.86
2022-09-07T15:32:57.341Z,33.90
2022-09-07T15:35:25.895Z,33.88
2022-09-07T15:38:02.424Z,33.49
2022-09-07T15:40:37.592Z,34.05
2022-09-07T15:43:30.062Z,33.66
2022-09-07T15:45:55.511Z,33.54
2022-09-07T15:48:25.308Z,33.40
2022-09-07T15:51:02.443Z,32.94
2022-09-07T15:56:20.314Z,32.73
2022-09-07T15:58:53.779Z,32.81
2022-09-07T16:04:17.106Z,32.96
2022-09-07T16:06:48.246Z,31.11
2022-09-07T16:09:17.505Z,32.78
2022-09-07T16:11:46.153Z,32.55
2022-09-07T16:14:15.466Z,32.27
2022-09-07T16:19:35.106Z,32.56
2022-09-07T16:22:03.550Z,33.28
2022-09-07T16:24:31.533Z,33.49
2022-09-07T16:26:59.390Z,33.84
2022-09-07T16:29:28.934Z,33.85
2022-09-07T16:34:45.020Z,33.83
2022-09-07T16:37:13.079Z,33.84
2022-09-07T16:39:41.828Z,33.90
2022-09-07T16:42:10.068Z,34.14
2022-09-07T16:44:39.518Z,34.46
2022-09-07T16:47:08.099Z,34.65
2022-09-07T16:49:36.244Z,34.85
2022-09-07T16:52:05.267Z,35.02
2022-09-07T16:54:33.105Z,35.18
2022-09-07T16:57:01.211Z,35.36
2022-09-07T16:59:29.085Z,35.57
2022-09-07T17:01:58.295Z,35.81
2022-09-07T17:04:26.583Z,36.11
2022-09-07T17:06:54.566Z,36.30
2022-09-07T17:09:26.619Z,36.50
2022-09-07T17:11:54.772Z,36.63
2022-09-07T17:14:22.718Z,36.73
2022-09-07T17:16:50.944Z,36.81
2022-09-07T17:19:29.477Z,36.98
2022-09-07T17:21:59.618Z,37.25
2022-09-07T17:24:27.803Z,37.38
2022-09-07T17:26:55.807Z,37.52
2022-09-07T17:29:23.698Z,37.66
2022-09-07T17:34:41.106Z,38.33
2022-09-07T17:37:10.118Z,38.72
2022-09-07T17:39:38.860Z,38.93
2022-09-07T17:42:07.532Z,39.32
2022-09-07T17:44:38.294Z,39.54
2022-09-07T17:47:06.855Z,39.90
2022-09-07T17:49:35.293Z,40.25
2022-09-07T17:52:06.510Z,40.27
2022-09-07T17:54:34.487Z,41.52
2022-09-07T17:57:03.239Z,41.27
2022-09-07T18:02:24.427Z,42.47
2022-09-07T18:04:52.574Z,43.43
2022-09-07T18:07:21.765Z,44.31
2022-09-07T18:09:49.659Z,43.37
2022-09-07T18:12:17.854Z,42.96
2022-09-07T18:14:45.667Z,42.61
2022-09-07T18:17:13.631Z,43.28
2022-09-07T18:19:41.722Z,45.65
2022-09-07T18:22:09.589Z,43.87
2022-09-07T18:24:38.816Z,44.31
2022-09-07T18:27:07.783Z,45.71
2022-09-07T18:29:35.654Z,47.35
2022-09-07T18:32:08.500Z,47.29
2022-09-07T18:34:37.568Z,49.33
2022-09-07T18:37:06.055Z,51.15
2022-09-07T18:39:35.654Z,49.71
2022-09-07T18:42:07.623Z,48.86
2022-09-07T18:47:28.880Z,48.45
2022-09-07T18:49:58.131Z,48.26
2022-09-07T18:55:16.684Z,48.02
2022-09-07T18:57:46.084Z,48.67
2022-09-07T19:00:14.701Z,48.06
2022-09-07T19:02:42.919Z,47.25
2022-09-07T19:08:03.128Z,46.38
2022-09-07T19:10:35.022Z,46.82
2022-09-07T19:13:04.733Z,46.63
2022-09-07T19:15:37.425Z,46.65
2022-09-07T19:18:07.752Z,46.34
2022-09-07T19:20:36.563Z,46.25
2022-09-07T19:23:04.626Z,46.05
2022-09-07T19:25:32.572Z,45.97
2022-09-07T19:28:00.687Z,46.31
2022-09-07T19:30:30.399Z,45.96
2022-09-07T19:33:02.114Z,46.17
2022-09-07T19:35:36.065Z,45.87
2022-09-07T19:38:03.977Z,46.26
2022-09-07T19:40:32.064Z,45.51
2022-09-07T19:42:59.966Z,45.38
2022-09-07T19:45:28.370Z,45.45
2022-09-07T19:47:57.821Z,45.51
2022-09-07T19:50:25.961Z,45.99
2022-09-07T19:52:53.812Z,46.10
2022-09-07T19:55:21.924Z,45.81
2022-09-07T19:57:51.275Z,45.74
2022-09-07T20:00:19.426Z,45.68
2022-09-07T20:02:48.994Z,45.54
2022-09-07T20:05:19.116Z,45.80
2022-09-07T20:07:47.334Z,46.05
2022-09-07T20:10:15.696Z,45.84
2022-09-07T20:12:43.598Z,45.94
2022-09-07T20:15:12.042Z,45.83
2022-09-07T20:17:39.926Z,45.89
2022-09-07T20:20:08.994Z,45.93
2022-09-07T20:22:38.597Z,45.96
2022-09-07T20:25:11.316Z,46.14
2022-09-07T20:27:41.389Z,46.21
2022-09-07T20:30:10.303Z,46.21
2022-09-07T20:32:38.223Z,46.52
2022-09-07T20:35:07.050Z,46.57
2022-09-07T20:37:35.117Z,46.68
2022-09-07T20:40:06.310Z,46.75
2022-09-07T20:42:34.501Z,46.89
2022-09-07T20:45:03.060Z,46.79
2022-09-07T20:47:30.879Z,46.85
2022-09-07T20:49:58.947Z,46.67
2022-09-07T20:52:27.094Z,46.39
2022-09-07T20:54:54.908Z,46.18
2022-09-07T20:57:24.687Z,46.13
2022-09-07T20:59:52.871Z,46.18
2022-09-07T21:02:20.798Z,46.08
2022-09-07T21:04:48.946Z,46.13
2022-09-07T21:07:16.788Z,46.24
2022-09-07T21:09:44.596Z,46.42
2022-09-07T21:12:12.750Z,46.96
2022-09-07T21:14:41.970Z,47.21
2022-09-07T21:17:09.845Z,47.19
2022-09-07T21:19:38.053Z,47.15
2022-09-07T21:22:06.046Z,47.55
2022-09-07T21:24:34.002Z,47.52
2022-09-07T21:27:02.055Z,47.75
2022-09-07T21:29:30.061Z,47.81
2022-09-07T21:31:59.228Z,47.69
2022-09-07T21:34:27.354Z,48.01
2022-09-07T21:36:55.168Z,47.70
2022-09-07T21:39:23.042Z,47.57
2022-09-07T21:41:51.133Z,47.48
2022-09-07T21:44:19.149Z,47.48
2022-09-07T21:46:47.146Z,47.44
2022-09-07T21:49:16.546Z,47.52
2022-09-07T21:51:44.486Z,47.56
2022-09-07T21:54:12.357Z,47.53
2022-09-07T21:56:45.868Z,47.50
2022-09-07T21:59:14.636Z,47.96
2022-09-07T22:01:42.729Z,48.05
2022-09-07T22:04:12.039Z,47.92
2022-09-07T22:06:41.455Z,47.91
2022-09-07T22:09:09.292Z,47.76
2022-09-07T22:11:37.553Z,47.60
2022-09-07T22:14:07.144Z,47.65
2022-09-07T22:16:36.090Z,47.98
2022-09-07T22:19:04.693Z,48.10
2022-09-07T22:21:32.988Z,48.31
2022-09-07T22:24:04.200Z,48.69
2022-09-07T22:26:37.482Z,50.05
2022-09-07T22:29:06.530Z,50.02
2022-09-07T22:31:36.580Z,50.19
2022-09-07T22:34:07.922Z,50.78
2022-09-07T22:36:37.395Z,51.62
2022-09-07T22:39:09.993Z,51.90
2022-09-07T22:41:39.456Z,52.01
2022-09-07T22:44:09.203Z,51.40
2022-09-07T22:46:39.337Z,51.73
2022-09-07T22:49:08.915Z,52.33
2022-09-07T22:51:37.047Z,52.38
2022-09-07T22:54:06.997Z,52.27
2022-09-07T22:56:35.751Z,52.08
2022-09-07T22:59:07.382Z,52.50
2022-09-07T23:01:36.463Z,53.17
2022-09-07T23:04:05.949Z,53.25
2022-09-07T23:06:35.886Z,52.67
2022-09-07T23:09:07.823Z,52.28
2022-09-07T23:11:35.727Z,51.95
2022-09-07T23:14:06.495Z,51.58
2022-09-07T23:16:34.996Z,51.48
2022-09-07T23:19:03.223Z,51.44
2022-09-07T23:21:31.233Z,51.42
2022-09-07T23:24:00.752Z,51.74
2022-09-07T23:26:32.148Z,52.00
2022-09-07T23:29:02.183Z,52.29
2022-09-07T23:31:32.604Z,52.28
2022-09-07T23:34:01.901Z,51.83
2022-09-07T23:36:30.027Z,51.65
2022-09-07T23:38:59.707Z,51.80
2022-09-07T23:41:28.639Z,51.97
2022-09-07T23:43:58.638Z,52.15
2022-09-07T23:46:26.892Z,52.59
2022-09-07T23:48:54.884Z,52.90
2022-09-07T23:51:24.526Z,53.43
2022-09-07T23:53:53.942Z,53.22
2022-09-07T23:56:24.278Z,53.22
2022-09-07T23:58:52.679Z,52.96
